createdAt,value
2023-05-10T00:00:23.349Z,9.680984
2023-05-10T00:01:23.367Z,9.680973
2023-05-10T00:02:23.410Z,9.680996
2023-05-10T00:03:23.519Z,9.680994
2023-05-10T00:04:23.397Z,9.681027
2023-05-10T00:05:23.392Z,9.681017
2023-05-10T00:06:23.290Z,9.680925
2023-05-10T00:07:23.306Z,9.680995
2023-05-10T00:08:23.255Z,9.681096
2023-05-10T00:09:23.286Z,9.681081
2023-05-10T00:10:23.253Z,9.681096
2023-05-10T00:11:23.365Z,9.681022
2023-05-10T00:12:23.223Z,9.681134
2023-05-10T00:13:23.293Z,9.681056
2023-05-10T00:14:23.220Z,9.681109
2023-05-10T00:15:23.225Z,9.681002
2023-05-10T00:16:23.225Z,9.681057
2023-05-10T00:17:23.210Z,9.681067
2023-05-10T00:18:23.165Z,9.681069
2023-05-10T00:19:23.217Z,9.681068
2023-05-10T00:20:23.163Z,9.680987
2023-05-10T00:21:23.183Z,9.681017
2023-05-10T00:22:23.139Z,9.681060
2023-05-10T00:23:23.228Z,9.681061
2023-05-10T00:24:23.182Z,9.681114
2023-05-10T00:25:23.162Z,9.681095
2023-05-10T00:26:23.146Z,9.681028
2023-05-10T00:27:23.238Z,9.681148
2023-05-10T00:28:23.091Z,9.681155
2023-05-10T00:29:23.097Z,9.681211
2023-05-10T00:30:23.109Z,9.681069
2023-05-10T00:31:23.124Z,9.681100
2023-05-10T00:32:23.092Z,9.681108
2023-05-10T00:33:23.062Z,9.681023
2023-05-10T00:34:23.041Z,9.681066
2023-05-10T00:35:23.049Z,9.681171
2023-05-10T00:36:23.032Z,9.680979
2023-05-10T00:37:23.035Z,9.681021
2023-05-10T00:38:23.037Z,9.681164
2023-05-10T00:39:23.009Z,9.681155
2023-05-10T00:40:23.017Z,9.681055
2023-05-10T00:41:22.988Z,9.681267
2023-05-10T00:42:22.977Z,9.681236
2023-05-10T00:43:22.971Z,9.681314
2023-05-10T00:44:22.962Z,9.681306
2023-05-10T00:45:22.950Z,9.681090
2023-05-10T00:46:22.961Z,9.681047
2023-05-10T00:47:22.979Z,9.681151
2023-05-10T00:48:22.931Z,9.681076
2023-05-10T00:49:22.931Z,9.681082
2023-05-10T00:50:22.915Z,9.681044
2023-05-10T00:51:22.916Z,9.681015
2023-05-10T00:52:22.877Z,9.681074
2023-05-10T00:53:22.897Z,9.681002
2023-05-10T00:54:22.876Z,9.681014
2023-05-10T00:55:22.871Z,9.681039
2023-05-10T00:56:22.873Z,9.681029
2023-05-10T00:57:22.849Z,9.681092
2023-05-10T00:58:22.831Z,9.681071
2023-05-10T00:59:22.834Z,9.681067
2023-05-10T01:00:22.840Z,9.681076
2023-05-10T01:01:22.864Z,9.681107
2023-05-10T01:02:22.903Z,9.681060
2023-05-10T01:03:22.878Z,9.681007
2023-05-10T01:04:22.807Z,9.681047
2023-05-10T01:05:22.921Z,9.681090
2023-05-10T01:06:22.777Z,9.681110
2023-05-10T01:07:22.777Z,9.681077
2023-05-10T01:13:42.399Z,9.681139
2023-05-10T01:14:42.393Z,9.681172
2023-05-10T01:15:42.425Z,9.681107
2023-05-10T01:16:42.363Z,9.681084
2023-05-10T01:17:42.398Z,9.681181
2023-05-10T01:18:42.360Z,9.681177
2023-05-10T01:19:42.387Z,9.681311
2023-05-10T01:20:42.330Z,9.681385
2023-05-10T01:21:42.365Z,9.681052
2023-05-10T01:22:42.313Z,9.681067
2023-05-10T01:23:42.324Z,9.681004
2023-05-10T01:24:42.307Z,9.681134
2023-05-10T01:25:42.325Z,9.681029
2023-05-10T01:26:42.292Z,9.681112
2023-05-10T01:27:42.303Z,9.681214
2023-05-10T01:28:42.275Z,9.681153
2023-05-10T01:29:42.283Z,9.681061
2023-05-10T01:30:42.264Z,9.681084
2023-05-10T01:31:42.354Z,9.680947
2023-05-10T01:32:42.303Z,9.681047
2023-05-10T01:33:42.257Z,9.681111
2023-05-10T01:34:42.222Z,9.681094
2023-05-10T01:35:42.217Z,9.681083
2023-05-10T01:36:42.197Z,9.681106
2023-05-10T01:37:42.214Z,9.681136
2023-05-10T01:38:42.207Z,9.681019
2023-05-10T01:39:42.188Z,9.681176
2023-05-10T01:40:42.176Z,9.681167
2023-05-10T01:41:42.163Z,9.681191
2023-05-10T01:42:42.476Z,9.681160
2023-05-10T01:43:42.155Z,9.681021
2023-05-10T01:44:42.128Z,9.681167
2023-05-10T01:45:42.127Z,9.681095
2023-05-10T01:46:42.148Z,9.681289
2023-05-10T01:47:42.164Z,9.681301
2023-05-10T01:48:42.118Z,9.681407
2023-05-10T01:49:42.107Z,9.681196
2023-05-10T01:50:42.062Z,9.681055
2023-05-10T01:51:42.091Z,9.681274
2023-05-10T01:52:42.061Z,9.681457
2023-05-10T01:53:42.068Z,9.681140
2023-05-10T01:54:42.068Z,9.681159
2023-05-10T01:55:42.056Z,9.681194
2023-05-10T01:56:42.021Z,9.681165
2023-05-10T01:57:42.029Z,9.681028
2023-05-10T01:58:42.021Z,9.681241
2023-05-10T01:59:42.065Z,9.681302
2023-05-10T02:00:42.035Z,9.681317
2023-05-10T02:01:42.015Z,9.681354
2023-05-10T02:02:42.022Z,9.681237
2023-05-10T02:03:41.995Z,9.681331
2023-05-10T02:04:41.946Z,9.681213
2023-05-10T02:05:41.984Z,9.681224
2023-05-10T02:06:41.938Z,9.681101
2023-05-10T02:07:41.959Z,9.680969
2023-05-10T02:08:41.927Z,9.681043
2023-05-10T02:09:41.938Z,9.680984
2023-05-10T02:10:41.905Z,9.680984
2023-05-10T02:11:41.938Z,9.680883
2023-05-10T02:12:41.914Z,9.680895
2023-05-10T02:13:41.897Z,9.680955
2023-05-10T02:14:41.859Z,9.681174
2023-05-10T02:15:41.865Z,9.681123
2023-05-10T02:16:41.979Z,9.681082
2023-05-10T02:17:41.877Z,9.681073
2023-05-10T02:18:41.820Z,9.681079
2023-05-10T02:19:41.845Z,9.681046
2023-05-10T02:20:41.832Z,9.681049
2023-05-10T02:21:41.832Z,9.681058
2023-05-10T02:22:41.812Z,9.681060
2023-05-10T02:23:41.816Z,9.681112
2023-05-10T02:24:41.785Z,9.681126
2023-05-10T02:25:41.778Z,9.681095
2023-05-10T02:26:41.777Z,9.681064
2023-05-10T02:27:41.775Z,9.680966
2023-05-10T02:28:41.755Z,9.681079
2023-05-10T02:29:41.767Z,9.680993
2023-05-10T02:30:41.723Z,9.681065
2023-05-10T02:31:41.756Z,9.681008
2023-05-10T02:32:41.803Z,9.681034
2023-05-10T02:33:41.721Z,9.681025
2023-05-10T02:34:41.700Z,9.681026
2023-05-10T02:35:41.701Z,9.681003
2023-05-10T02:36:41.681Z,9.681034
2023-05-10T02:37:41.702Z,9.681081
2023-05-10T02:38:41.669Z,9.681058
2023-05-10T02:39:41.658Z,9.681044
2023-05-10T02:40:41.633Z,9.681086
2023-05-10T02:41:41.638Z,9.681074
2023-05-10T02:42:41.635Z,9.681050
2023-05-10T02:43:41.625Z,9.681053
2023-05-10T02:44:41.603Z,9.681076
2023-05-10T02:45:41.717Z,9.681011
2023-05-10T02:46:41.594Z,9.681047
2023-05-10T02:47:41.656Z,9.681034
2023-05-10T02:48:41.579Z,9.681040
2023-05-10T02:49:41.601Z,9.681021
2023-05-10T02:50:41.575Z,9.681035
2023-05-10T02:51:41.548Z,9.681065
2023-05-10T02:52:41.553Z,9.681067
2023-05-10T02:53:41.544Z,9.681014
2023-05-10T02:54:41.519Z,9.681043
2023-05-10T02:55:41.527Z,9.681048
2023-05-10T02:56:41.497Z,9.680999
2023-05-10T02:57:41.504Z,9.681022
2023-05-10T02:58:41.506Z,9.681081
2023-05-10T02:59:41.482Z,9.681046
2023-05-10T03:00:41.457Z,9.681006
2023-05-10T03:01:41.506Z,9.681053
2023-05-10T03:02:41.506Z,9.680997
2023-05-10T03:03:41.475Z,9.681007
2023-05-10T03:04:41.454Z,9.681072
2023-05-10T03:05:41.448Z,9.681058
2023-05-10T03:06:41.417Z,9.681047
2023-05-10T03:07:41.422Z,9.681043
2023-05-10T03:08:41.428Z,9.681000
2023-05-10T03:09:41.415Z,9.680970
2023-05-10T03:10:41.366Z,9.681019
2023-05-10T03:11:41.394Z,9.681027
2023-05-10T03:12:41.446Z,9.680998
2023-05-10T03:13:41.384Z,9.681048
2023-05-10T03:14:41.379Z,9.681045
2023-05-10T03:15:41.388Z,9.681030
2023-05-10T03:16:44.090Z,9.681087
2023-05-10T03:17:41.382Z,9.681114
2023-05-10T03:18:41.311Z,9.681030
2023-05-10T03:19:41.342Z,9.681004
2023-05-10T03:20:41.293Z,9.681041
2023-05-10T03:21:41.305Z,9.681037
2023-05-10T03:22:41.317Z,9.681049
2023-05-10T03:23:41.294Z,9.681024
2023-05-10T03:24:41.290Z,9.681036
2023-05-10T03:25:41.287Z,9.681030
2023-05-10T03:26:41.245Z,9.681030
2023-05-10T03:27:41.253Z,9.681020
2023-05-10T03:28:41.226Z,9.681013
2023-05-10T03:29:41.225Z,9.681050
2023-05-10T03:30:41.250Z,9.681025
2023-05-10T03:31:41.278Z,9.681045
2023-05-10T03:32:41.230Z,9.681028
2023-05-10T03:33:41.199Z,9.681019
2023-05-10T03:34:41.175Z,9.680994
2023-05-10T03:35:41.181Z,9.680987
2023-05-10T03:36:41.182Z,9.681021
2023-05-10T03:37:41.179Z,9.681051
2023-05-10T03:38:41.153Z,9.681033
2023-05-10T03:39:41.152Z,9.681053
2023-05-10T03:40:41.119Z,9.681038
2023-05-10T03:41:41.125Z,9.681010
2023-05-10T03:42:41.131Z,9.681067
2023-05-10T03:43:41.110Z,9.681024
2023-05-10T03:44:41.109Z,9.681006
2023-05-10T03:45:41.129Z,9.681097
2023-05-10T03:46:41.150Z,9.681023
2023-05-10T03:47:41.107Z,9.680999
2023-05-10T03:48:41.070Z,9.681073
2023-05-10T03:49:41.070Z,9.681067
2023-05-10T03:50:41.076Z,9.681048
2023-05-10T03:51:41.076Z,9.681074
2023-05-10T03:52:41.036Z,9.681010
2023-05-10T03:53:41.053Z,9.680999
2023-05-10T03:54:41.031Z,9.681024
2023-05-10T03:55:41.042Z,9.681022
2023-05-10T03:56:40.992Z,9.681052
2023-05-10T03:57:41.050Z,9.681025
2023-05-10T03:58:40.987Z,9.681063
2023-05-10T03:59:41.021Z,9.681068
2023-05-10T04:00:40.982Z,9.681024
2023-05-10T04:01:40.987Z,9.681066
2023-05-10T04:02:41.517Z,9.681106
2023-05-10T04:03:40.979Z,9.681107
2023-05-10T04:04:40.929Z,9.681067
2023-05-10T04:05:40.934Z,9.680992
2023-05-10T04:06:40.982Z,9.681026
2023-05-10T04:07:40.921Z,9.681047
2023-05-10T04:08:40.896Z,9.681091
2023-05-10T04:09:40.903Z,9.681066
2023-05-10T04:10:40.904Z,9.681094
2023-05-10T04:11:40.940Z,9.681025
2023-05-10T04:12:40.879Z,9.681149
2023-05-10T04:13:40.872Z,9.681142
2023-05-10T04:14:40.869Z,9.681112
2023-05-10T04:15:40.862Z,9.681231
2023-05-10T04:16:40.852Z,9.681227
2023-05-10T04:17:40.891Z,9.681190
2023-05-10T04:18:40.807Z,9.681155
2023-05-10T04:19:40.829Z,9.681194
2023-05-10T04:20:40.794Z,9.681246
2023-05-10T04:21:40.805Z,9.681250
2023-05-10T04:22:40.790Z,9.681250
2023-05-10T04:23:40.853Z,9.681246
2023-05-10T04:24:40.774Z,9.681186
2023-05-10T04:25:40.777Z,9.681224
2023-05-10T04:26:40.741Z,9.681104
2023-05-10T04:27:40.776Z,9.681165
2023-05-10T04:28:40.741Z,9.681175
2023-05-10T04:29:40.761Z,9.681211
2023-05-10T04:30:40.726Z,9.681170
2023-05-10T04:31:40.714Z,9.681185
2023-05-10T04:32:40.773Z,9.681252
2023-05-10T04:33:40.708Z,9.681214
2023-05-10T04:34:40.672Z,9.681172
2023-05-10T04:35:40.700Z,9.681194
2023-05-10T04:36:40.682Z,9.681198
2023-05-10T04:37:40.719Z,9.681202
2023-05-10T04:38:40.637Z,9.681151
2023-05-10T04:39:42.331Z,9.681176
2023-05-10T04:40:40.611Z,9.681175
2023-05-10T04:41:40.632Z,9.681170
2023-05-10T04:42:40.626Z,9.681163
2023-05-10T04:43:40.614Z,9.681159
2023-05-10T04:44:40.596Z,9.681203
2023-05-10T04:45:40.608Z,9.681215
2023-05-10T04:46:40.738Z,9.681198
2023-05-10T04:47:40.611Z,9.681213
2023-05-10T04:48:40.554Z,9.681172
2023-05-10T04:49:40.554Z,9.681184
2023-05-10T04:50:40.558Z,9.681160
2023-05-10T04:51:40.603Z,9.681117
2023-05-10T04:52:40.519Z,9.681154
2023-05-10T04:53:41.783Z,9.681099
2023-05-10T04:54:40.506Z,9.681100
2023-05-10T04:55:40.512Z,9.681151
2023-05-10T04:56:40.474Z,9.681080
2023-05-10T04:57:40.520Z,9.681123
2023-05-10T04:58:40.471Z,9.681222
2023-05-10T04:59:40.469Z,9.681174
2023-05-10T05:00:40.448Z,9.681181
2023-05-10T05:01:40.488Z,9.681176
2023-05-10T05:02:40.637Z,9.681132
2023-05-10T05:03:40.546Z,9.681170
2023-05-10T05:04:40.419Z,9.681245
2023-05-10T05:05:40.441Z,9.681230
2023-05-10T05:06:40.405Z,9.681083
2023-05-10T05:07:40.420Z,9.681201
2023-05-10T05:08:40.385Z,9.681160
2023-05-10T05:09:40.388Z,9.681129
2023-05-10T05:10:40.404Z,9.681264
2023-05-10T05:11:40.371Z,9.681190
2023-05-10T05:12:40.359Z,9.681130
2023-05-10T05:13:40.396Z,9.681190
2023-05-10T05:14:40.345Z,9.681157
2023-05-10T05:15:40.357Z,9.681109
2023-05-10T05:16:40.451Z,9.681100
2023-05-10T05:17:40.362Z,9.681020
2023-05-10T05:18:40.302Z,9.681025
2023-05-10T05:19:40.339Z,9.681009
2023-05-10T05:20:40.289Z,9.680983
2023-05-10T05:21:40.307Z,9.681042
2023-05-10T05:22:40.299Z,9.681091
2023-05-10T05:23:40.278Z,9.681112
2023-05-10T05:24:40.281Z,9.680975
2023-05-10T05:25:40.266Z,9.681134
2023-05-10T05:26:40.227Z,9.681022
2023-05-10T05:27:40.254Z,9.681129
2023-05-10T05:28:40.252Z,9.681126
2023-05-10T05:29:40.242Z,9.681003
2023-05-10T05:30:40.214Z,9.681194
2023-05-10T05:31:40.259Z,9.681209
2023-05-10T05:32:40.202Z,9.681137
2023-05-10T05:33:40.180Z,9.681009
2023-05-10T05:34:40.191Z,9.681028
2023-05-10T05:35:40.181Z,9.681048
2023-05-10T05:36:40.192Z,9.681070
2023-05-10T05:37:40.143Z,9.681024
2023-05-10T05:38:40.141Z,9.680955
2023-05-10T05:39:40.128Z,9.681020
2023-05-10T05:40:40.123Z,9.681002
2023-05-10T05:41:40.114Z,9.681153
2023-05-10T05:42:40.093Z,9.681091
2023-05-10T05:43:40.095Z,9.680957
2023-05-10T05:44:40.070Z,9.681046
2023-05-10T05:45:40.124Z,9.681063
2023-05-10T05:46:40.057Z,9.681080
2023-05-10T05:47:40.087Z,9.681061
2023-05-10T05:48:40.024Z,9.680994
2023-05-10T05:49:40.052Z,9.681000
2023-05-10T05:50:40.027Z,9.681054
2023-05-10T05:51:40.067Z,9.681032
2023-05-10T05:52:40.000Z,9.681053
2023-05-10T05:53:40.001Z,9.681052
2023-05-10T05:54:40.012Z,9.681034
2023-05-10T05:55:39.985Z,9.681094
2023-05-10T05:56:39.969Z,9.681084
2023-05-10T05:57:40.008Z,9.681126
2023-05-10T05:58:39.986Z,9.681062
2023-05-10T05:59:39.973Z,9.681018
2023-05-10T06:00:39.935Z,9.681083
2023-05-10T06:01:39.959Z,9.681077
2023-05-10T06:02:40.070Z,9.681110
2023-05-10T06:03:40.014Z,9.680908
2023-05-10T06:04:40.156Z,9.680952
2023-05-10T06:05:39.910Z,9.680894
2023-05-10T06:06:39.907Z,9.681021
2023-05-10T06:07:39.893Z,9.681042
2023-05-10T06:08:39.867Z,9.681060
2023-05-10T06:09:39.882Z,9.680983
2023-05-10T06:10:39.880Z,9.681065
2023-05-10T06:11:39.856Z,9.681227
2023-05-10T06:12:39.875Z,9.681091
2023-05-10T06:13:39.843Z,9.680974
2023-05-10T06:14:39.811Z,9.680963
2023-05-10T06:15:39.827Z,9.680945
2023-05-10T06:16:39.818Z,9.680918
2023-05-10T06:17:39.922Z,9.680957
2023-05-10T06:18:39.815Z,9.681035
2023-05-10T06:19:39.833Z,9.681128
2023-05-10T06:20:39.767Z,9.681014
2023-05-10T06:21:39.778Z,9.681005
2023-05-10T06:22:39.766Z,9.680985
2023-05-10T06:23:39.757Z,9.681048
2023-05-10T06:24:39.765Z,9.681010
2023-05-10T06:25:39.791Z,9.681019
2023-05-10T06:26:39.721Z,9.680977
2023-05-10T06:27:39.740Z,9.681054
2023-05-10T06:28:39.711Z,9.681033
2023-05-10T06:29:39.711Z,9.681084
2023-05-10T06:30:39.705Z,9.681029
2023-05-10T06:31:39.751Z,9.681016
2023-05-10T06:32:39.703Z,9.681037
2023-05-10T06:33:39.669Z,9.681017
2023-05-10T06:34:39.672Z,9.681005
2023-05-10T06:35:39.662Z,9.681031
2023-05-10T06:36:39.658Z,9.680978
2023-05-10T06:37:39.648Z,9.680983
2023-05-10T06:38:39.626Z,9.681029
2023-05-10T06:39:39.616Z,9.681070
2023-05-10T06:40:39.610Z,9.681065
2023-05-10T06:41:39.613Z,9.680997
2023-05-10T06:42:39.578Z,9.680988
2023-05-10T06:43:39.605Z,9.681048
2023-05-10T06:44:39.567Z,9.681040
2023-05-10T06:45:39.609Z,9.681049
2023-05-10T06:46:39.630Z,9.681017
2023-05-10T06:47:39.727Z,9.680992
2023-05-10T06:48:39.536Z,9.681007
2023-05-10T06:49:39.530Z,9.681012
2023-05-10T06:50:39.536Z,9.680978
2023-05-10T06:51:39.543Z,9.680992
2023-05-10T06:52:39.518Z,9.681014
2023-05-10T06:53:39.531Z,9.680995
2023-05-10T06:54:39.479Z,9.681003
2023-05-10T06:55:39.492Z,9.681032
2023-05-10T06:56:39.456Z,9.681020
2023-05-10T06:57:39.501Z,9.680996
2023-05-10T06:58:46.508Z,9.680994
2023-05-10T06:59:39.524Z,9.681004
2023-05-10T07:00:39.501Z,9.680984
2023-05-10T07:01:39.492Z,9.681000
2023-05-10T07:02:39.479Z,9.680992
2023-05-10T07:03:39.471Z,9.680957
2023-05-10T07:04:39.769Z,9.680985
2023-05-10T07:05:39.628Z,9.681013
2023-05-10T07:06:39.417Z,9.681005
2023-05-10T07:07:39.413Z,9.681000
2023-05-10T07:08:39.380Z,9.681009
2023-05-10T07:09:39.381Z,9.680988
2023-05-10T07:10:39.345Z,9.680985
2023-05-10T07:11:39.351Z,9.680984
2023-05-10T07:12:39.469Z,9.681032
2023-05-10T07:13:39.408Z,9.681012
2023-05-10T07:14:39.317Z,9.681010
2023-05-10T07:15:39.338Z,9.680988
2023-05-10T07:16:39.312Z,9.681021
2023-05-10T07:17:39.336Z,9.680948
2023-05-10T07:18:39.299Z,9.680948
2023-05-10T07:19:39.283Z,9.681131
2023-05-10T07:20:39.262Z,9.681129
2023-05-10T07:21:39.313Z,9.681059
2023-05-10T07:22:39.245Z,9.681132
2023-05-10T07:23:39.278Z,9.681116
2023-05-10T07:24:39.227Z,9.681027
2023-05-10T07:25:39.252Z,9.681076
2023-05-10T07:26:39.235Z,9.681162
2023-05-10T07:27:39.220Z,9.681102
2023-05-10T07:28:39.200Z,9.681056
2023-05-10T07:29:39.230Z,9.681061
2023-05-10T07:30:39.211Z,9.681027
2023-05-10T07:31:39.210Z,9.681071
2023-05-10T07:32:39.237Z,9.681119
2023-05-10T07:33:39.166Z,9.681138
2023-05-10T07:34:39.142Z,9.681105
2023-05-10T07:35:39.192Z,9.681113
2023-05-10T07:36:39.123Z,9.681046
2023-05-10T07:37:39.151Z,9.681023
2023-05-10T07:38:40.975Z,9.680985
2023-05-10T07:39:39.122Z,9.681039
2023-05-10T07:40:39.091Z,9.681052
2023-05-10T07:41:39.118Z,9.681087
2023-05-10T07:42:39.085Z,9.680957
2023-05-10T07:43:39.117Z,9.681065
2023-05-10T07:44:39.068Z,9.681081
2023-05-10T07:45:39.116Z,9.681072
2023-05-10T07:46:39.037Z,9.681048
2023-05-10T07:47:39.081Z,9.681153
2023-05-10T07:48:39.022Z,9.681153
2023-05-10T07:49:39.061Z,9.681157
2023-05-10T07:50:39.005Z,9.681112
2023-05-10T07:51:39.017Z,9.681123
2023-05-10T07:52:38.996Z,9.681143
2023-05-10T07:53:39.005Z,9.681040
2023-05-10T07:54:39.015Z,9.681076
2023-05-10T07:55:38.999Z,9.681084
2023-05-10T07:56:38.975Z,9.681151
2023-05-10T07:57:38.963Z,9.681129
2023-05-10T07:58:38.943Z,9.681114
2023-05-10T07:59:38.966Z,9.681037
2023-05-10T08:00:38.933Z,9.681042
2023-05-10T08:01:38.939Z,9.681147
2023-05-10T08:02:39.105Z,9.681205
2023-05-10T08:03:39.046Z,9.681087
2023-05-10T08:04:38.979Z,9.681067
2023-05-10T08:05:38.936Z,9.681114
2023-05-10T08:06:38.894Z,9.681098
2023-05-10T08:07:38.886Z,9.681142
2023-05-10T08:08:38.876Z,9.681117
2023-05-10T08:09:38.878Z,9.681174
2023-05-10T08:10:38.866Z,9.681039
2023-05-10T08:11:38.857Z,9.681129
2023-05-10T08:12:38.831Z,9.681103
2023-05-10T08:13:38.871Z,9.681090
2023-05-10T08:14:38.858Z,9.681268
2023-05-10T08:15:38.874Z,9.681252
2023-05-10T08:16:38.823Z,9.681100
2023-05-10T08:17:38.893Z,9.681214
2023-05-10T08:18:38.803Z,9.681130
2023-05-10T08:19:38.801Z,9.681102
2023-05-10T08:20:38.773Z,9.681207
2023-05-10T08:21:38.785Z,9.681072
2023-05-10T08:22:38.766Z,9.681122
2023-05-10T08:23:38.772Z,9.681179
2023-05-10T08:24:38.809Z,9.681110
2023-05-10T08:25:38.746Z,9.681075
2023-05-10T08:26:38.738Z,9.681087
2023-05-10T08:27:38.731Z,9.681046
2023-05-10T08:28:38.740Z,9.681110
2023-05-10T08:29:48.859Z,9.681186
2023-05-10T08:30:39.705Z,9.681125
2023-05-10T08:31:38.808Z,9.681121
2023-05-10T08:32:38.689Z,9.681056
2023-05-10T08:33:38.711Z,9.681009
2023-05-10T08:34:38.657Z,9.681083
2023-05-10T08:35:38.666Z,9.681210
2023-05-10T08:36:38.684Z,9.681049
2023-05-10T08:37:38.649Z,9.681059
2023-05-10T08:38:38.656Z,9.680976
2023-05-10T08:39:38.699Z,9.681040
2023-05-10T08:40:38.608Z,9.680948
2023-05-10T08:41:38.619Z,9.681019
2023-05-10T08:42:38.603Z,9.681116
2023-05-10T08:43:38.618Z,9.681055
2023-05-10T08:44:38.570Z,9.681043
2023-05-10T08:45:38.618Z,9.681025
2023-05-10T08:46:38.661Z,9.681057
2023-05-10T08:47:38.582Z,9.681030
2023-05-10T08:48:38.544Z,9.681028
2023-05-10T08:49:38.582Z,9.680999
2023-05-10T08:50:38.533Z,9.680982
2023-05-10T08:51:38.554Z,9.680986
2023-05-10T08:52:38.516Z,9.680969
2023-05-10T08:53:38.547Z,9.680984
2023-05-10T08:54:38.521Z,9.681053
2023-05-10T08:55:38.512Z,9.681024
2023-05-10T08:56:38.662Z,9.681007
2023-05-10T08:57:38.483Z,9.681029
2023-05-10T08:58:38.464Z,9.681016
2023-05-10T08:59:38.478Z,9.680968
2023-05-10T09:00:38.516Z,9.680987
2023-05-10T09:01:38.458Z,9.681046
2023-05-10T09:02:38.482Z,9.681059
2023-05-10T09:03:38.457Z,9.680998
2023-05-10T09:04:38.439Z,9.681017
2023-05-10T09:05:38.410Z,9.681042
2023-05-10T09:06:38.448Z,9.681032
2023-05-10T09:07:38.404Z,9.681041
2023-05-10T09:08:38.377Z,9.681027
2023-05-10T09:09:38.380Z,9.681063
2023-05-10T09:10:38.356Z,9.681003
2023-05-10T09:11:38.368Z,9.681026
2023-05-10T09:12:38.368Z,9.681003
2023-05-10T09:13:38.369Z,9.681026
2023-05-10T09:14:38.331Z,9.680931
2023-05-10T09:15:38.336Z,9.681073
2023-05-10T09:16:38.388Z,9.681017
2023-05-10T09:17:38.374Z,9.681016
2023-05-10T09:18:38.365Z,9.681084
2023-05-10T09:19:38.315Z,9.681094
2023-05-10T09:20:38.273Z,9.681000
2023-05-10T09:21:38.278Z,9.681062
2023-05-10T09:22:38.261Z,9.681005
2023-05-10T09:23:38.293Z,9.681005
2023-05-10T09:24:38.256Z,9.681020
2023-05-10T09:25:38.253Z,9.681011
2023-05-10T09:26:38.258Z,9.681006
2023-05-10T09:27:38.233Z,9.681022
2023-05-10T09:28:38.218Z,9.681042
2023-05-10T09:29:38.208Z,9.680902
2023-05-10T09:30:38.230Z,9.680896
2023-05-10T09:31:38.202Z,9.680904
2023-05-10T09:32:38.186Z,9.681040
2023-05-10T09:33:38.172Z,9.681099
2023-05-10T09:34:38.158Z,9.680931
2023-05-10T09:35:38.160Z,9.680977
2023-05-10T09:36:38.202Z,9.680959
2023-05-10T09:37:38.149Z,9.680915
2023-05-10T09:38:38.130Z,9.680952
2023-05-10T09:39:38.115Z,9.680945
2023-05-10T09:40:38.123Z,9.680989
2023-05-10T09:41:38.103Z,9.680892
2023-05-10T09:42:38.101Z,9.680921
2023-05-10T09:43:38.107Z,9.681097
2023-05-10T09:44:38.070Z,9.681076
2023-05-10T09:45:39.138Z,9.681046
2023-05-10T09:46:38.097Z,9.681085
2023-05-10T09:47:38.122Z,9.681106
2023-05-10T09:48:38.040Z,9.681134
2023-05-10T09:49:38.054Z,9.680993
2023-05-10T09:50:38.033Z,9.680929
2023-05-10T09:51:38.033Z,9.680928
2023-05-10T09:52:38.052Z,9.681085
2023-05-10T09:53:38.007Z,9.681103
2023-05-10T09:54:38.029Z,9.681082
2023-05-10T09:55:38.026Z,9.681147
2023-05-10T09:56:37.998Z,9.681121
2023-05-10T09:57:37.992Z,9.681009
2023-05-10T09:58:37.995Z,9.681020
2023-05-10T09:59:37.987Z,9.680983
2023-05-10T10:00:37.941Z,9.680921
2023-05-10T10:01:37.978Z,9.681018
2023-05-10T10:02:38.065Z,9.680863
2023-05-10T10:03:37.946Z,9.681033
2023-05-10T10:04:37.985Z,9.681126
2023-05-10T10:05:37.917Z,9.681121
2023-05-10T10:06:37.908Z,9.681099
2023-05-10T10:07:37.916Z,9.681080
2023-05-10T10:08:37.879Z,9.681059
2023-05-10T10:09:37.915Z,9.681090
2023-05-10T10:10:37.868Z,9.681091
2023-05-10T10:11:37.896Z,9.681083
2023-05-10T10:12:37.887Z,9.681062
2023-05-10T10:13:37.875Z,9.681121
2023-05-10T10:14:37.855Z,9.681102
2023-05-10T10:15:37.878Z,9.681211
2023-05-10T10:16:45.826Z,9.681065
2023-05-10T10:17:38.885Z,9.681105
2023-05-10T10:18:37.877Z,9.681225
2023-05-10T10:19:38.194Z,9.681134
2023-05-10T10:20:37.826Z,9.681041
2023-05-10T10:21:37.805Z,9.681075
2023-05-10T10:22:37.798Z,9.681095
2023-05-10T10:23:37.826Z,9.681054
2023-05-10T10:24:37.810Z,9.681114
2023-05-10T10:25:37.767Z,9.681075
2023-05-10T10:26:38.580Z,9.681047
2023-05-10T10:27:37.765Z,9.681091
2023-05-10T10:28:37.766Z,9.681116
2023-05-10T10:29:37.744Z,9.681125
2023-05-10T10:30:37.726Z,9.681005
2023-05-10T10:31:37.908Z,9.681009
2023-05-10T10:32:37.729Z,9.681098
2023-05-10T10:33:37.730Z,9.680971
2023-05-10T10:34:37.691Z,9.681005
2023-05-10T10:35:37.706Z,9.681007
2023-05-10T10:36:37.702Z,9.681142
2023-05-10T10:37:37.677Z,9.681108
2023-05-10T10:38:38.114Z,9.681038
2023-05-10T10:39:37.845Z,9.681111
2023-05-10T10:40:37.652Z,9.681081
2023-05-10T10:41:37.648Z,9.681125
2023-05-10T10:42:37.611Z,9.681087
2023-05-10T10:43:37.638Z,9.681057
2023-05-10T10:44:37.647Z,9.681133
2023-05-10T10:45:37.634Z,9.681094
2023-05-10T10:46:37.657Z,9.681145
2023-05-10T10:47:37.636Z,9.681046
2023-05-10T10:48:37.586Z,9.681014
2023-05-10T10:49:37.579Z,9.681034
2023-05-10T10:50:37.554Z,9.681125
2023-05-10T10:51:37.562Z,9.681072
2023-05-10T10:52:37.631Z,9.681021
2023-05-10T10:53:37.565Z,9.681042
2023-05-10T10:54:37.556Z,9.681044
2023-05-10T10:55:37.527Z,9.681070
2023-05-10T10:56:37.590Z,9.681001
2023-05-10T10:57:37.535Z,9.680963
2023-05-10T10:58:37.533Z,9.680976
2023-05-10T10:59:37.523Z,9.680990
2023-05-10T11:00:37.640Z,9.681042
2023-05-10T11:01:37.651Z,9.681072
2023-05-10T11:02:37.587Z,9.680943
2023-05-10T11:03:37.508Z,9.680959
2023-05-10T11:04:37.563Z,9.681009
2023-05-10T11:05:37.470Z,9.681014
2023-05-10T11:06:37.454Z,9.680949
2023-05-10T11:07:37.490Z,9.681032
2023-05-10T11:08:38.355Z,9.681039
2023-05-10T11:09:37.472Z,9.680957
2023-05-10T11:10:37.428Z,9.680970
2023-05-10T11:11:37.442Z,9.680973
2023-05-10T11:12:37.400Z,9.681045
2023-05-10T11:13:37.473Z,9.680986
2023-05-10T11:14:37.403Z,9.681063
2023-05-10T11:15:37.413Z,9.681066
2023-05-10T11:16:37.399Z,9.681064
2023-05-10T11:17:37.473Z,9.680993
2023-05-10T11:18:37.393Z,9.680911
2023-05-10T11:19:37.379Z,9.681013
2023-05-10T11:20:37.362Z,9.681090
2023-05-10T11:21:37.384Z,9.681088
2023-05-10T11:22:37.339Z,9.681030
2023-05-10T11:23:37.359Z,9.681028
2023-05-10T11:24:37.328Z,9.681051
2023-05-10T11:25:37.328Z,9.681018
2023-05-10T11:26:37.311Z,9.681032
2023-05-10T11:27:37.339Z,9.680951
2023-05-10T11:28:37.310Z,9.680975
2023-05-10T11:29:37.322Z,9.680989
2023-05-10T11:30:37.300Z,9.681055
2023-05-10T11:31:37.301Z,9.680995
2023-05-10T11:32:37.290Z,9.681046
2023-05-10T11:33:37.277Z,9.680989
2023-05-10T11:34:37.280Z,9.680972
2023-05-10T11:35:37.253Z,9.680877
2023-05-10T11:36:37.442Z,9.681085
2023-05-10T11:37:37.275Z,9.681040
2023-05-10T11:38:37.252Z,9.681088
2023-05-10T11:39:37.251Z,9.681024
2023-05-10T11:40:37.220Z,9.681080
2023-05-10T11:41:37.265Z,9.681046
2023-05-10T11:42:37.204Z,9.681064
2023-05-10T11:43:37.261Z,9.681127
2023-05-10T11:44:37.186Z,9.681111
2023-05-10T11:45:37.191Z,9.681096
2023-05-10T11:46:37.234Z,9.681069
2023-05-10T11:47:37.189Z,9.681076
2023-05-10T11:48:37.169Z,9.681110
2023-05-10T11:49:37.191Z,9.681046